createdAt,value
2019-04-25T00:01:01.213Z,16.15
2019-04-25T00:03:09.668Z,16.16
2019-04-25T00:05:19.073Z,16.17
2019-04-25T00:07:27.028Z,16.17
2019-04-25T00:09:37.585Z,16.15
2019-04-25T00:11:47.814Z,16.13
2019-04-25T00:13:55.546Z,16.10
2019-04-25T00:16:04.108Z,16.18
2019-04-25T00:18:12.176Z,16.14
2019-04-25T00:20:21.395Z,16.16
2019-04-25T00:22:31.694Z,16.19
2019-04-25T00:24:39.747Z,16.20
2019-04-25T00:26:49.208Z,16.19
2019-04-25T00:28:57.195Z,16.21
2019-04-25T00:31:05.691Z,16.23
2019-04-25T00:33:13.676Z,16.21
2019-04-25T00:35:21.761Z,16.21
2019-04-25T00:37:29.927Z,16.21
2019-04-25T00:39:37.883Z,16.19
2019-04-25T00:41:46.418Z,16.17
2019-04-25T00:43:55.596Z,16.15
2019-04-25T00:46:03.450Z,16.14
2019-04-25T00:48:12.260Z,16.12
2019-04-25T00:50:21.887Z,16.11
2019-04-25T00:52:31.360Z,16.09
2019-04-25T00:54:39.367Z,16.08
2019-04-25T00:56:48.262Z,16.03
2019-04-25T00:58:56.510Z,16.04
2019-04-25T01:01:12.080Z,16.03
2019-04-25T01:03:27.903Z,16.00
2019-04-25T01:05:35.766Z,15.97
2019-04-25T01:07:44.360Z,15.99
2019-04-25T01:09:53.643Z,15.99
2019-04-25T01:12:04.145Z,15.99
2019-04-25T01:14:12.037Z,15.98
2019-04-25T01:16:22.030Z,15.97
2019-04-25T01:18:31.415Z,16.00
2019-04-25T01:20:39.533Z,15.97
2019-04-25T01:22:47.414Z,15.97
2019-04-25T01:24:56.074Z,15.97
2019-04-25T01:27:05.906Z,15.93
2019-04-25T01:29:14.060Z,15.92
2019-04-25T01:31:24.890Z,15.87
2019-04-25T01:33:33.368Z,15.83
2019-04-25T01:35:46.215Z,15.73
2019-04-25T01:38:03.799Z,15.67
2019-04-25T01:40:14.500Z,15.56
2019-04-25T01:42:35.891Z,15.50
2019-04-25T01:44:45.390Z,15.40
2019-04-25T01:46:54.466Z,15.30
2019-04-25T01:49:04.320Z,15.25
2019-04-25T01:51:14.090Z,15.16
2019-04-25T01:53:22.102Z,15.08
2019-04-25T01:55:30.440Z,14.99
2019-04-25T01:57:38.235Z,14.94
2019-04-25T01:59:46.310Z,14.88
2019-04-25T02:01:55.431Z,14.80
2019-04-25T02:04:04.374Z,14.78
2019-04-25T02:06:13.663Z,14.73
2019-04-25T02:08:21.560Z,14.64
2019-04-25T02:10:30.525Z,14.56
2019-04-25T02:12:52.785Z,14.50
2019-04-25T02:15:03.936Z,14.46
2019-04-25T02:17:11.601Z,14.40
2019-04-25T02:19:19.414Z,14.32
2019-04-25T02:21:27.276Z,14.25
2019-04-25T02:23:35.167Z,14.21
2019-04-25T02:25:44.272Z,14.15
2019-04-25T02:27:53.395Z,14.08
2019-04-25T02:30:03.556Z,13.98
2019-04-25T02:32:11.494Z,13.90
2019-04-25T02:34:19.371Z,13.85
2019-04-25T02:36:27.395Z,13.83
2019-04-25T02:38:35.485Z,13.72
2019-04-25T02:40:45.445Z,13.68
2019-04-25T02:42:55.817Z,13.63
2019-04-25T02:45:19.408Z,13.56
2019-04-25T02:47:34.284Z,13.53
2019-04-25T02:49:44.794Z,13.48
2019-04-25T02:51:56.194Z,13.47
2019-04-25T02:54:06.774Z,13.45
2019-04-25T02:56:27.501Z,13.43
2019-04-25T02:58:24.297Z,13.39
2019-04-25T03:00:47.674Z,13.30
2019-04-25T03:02:44.561Z,13.28
2019-04-25T03:04:54.529Z,13.27
2019-04-25T03:07:07.152Z,13.19
2019-04-25T03:09:15.133Z,13.21
2019-04-25T03:11:24.298Z,13.13
2019-04-25T03:13:34.138Z,13.13
2019-04-25T03:15:41.454Z,13.05
2019-04-25T03:17:49.315Z,13.00
2019-04-25T03:20:15.190Z,12.95
2019-04-25T03:22:31.250Z,12.94
2019-04-25T03:24:39.083Z,12.89
2019-04-25T03:26:47.040Z,12.91
2019-04-25T03:28:54.895Z,12.85
2019-04-25T03:31:08.697Z,12.85
2019-04-25T03:33:18.915Z,12.89
2019-04-25T03:35:23.280Z,12.86
2019-04-25T03:37:33.035Z,12.90
2019-04-25T03:39:41.059Z,12.94
2019-04-25T03:41:48.854Z,12.96
2019-04-25T03:43:56.674Z,12.98
2019-04-25T03:46:06.167Z,13.00
2019-04-25T03:48:14.892Z,13.03
2019-04-25T03:50:23.297Z,13.01
2019-04-25T03:52:31.282Z,13.04
2019-04-25T03:54:39.169Z,13.05
2019-04-25T03:56:53.437Z,13.07
2019-04-25T03:58:56.819Z,13.11
2019-04-25T04:01:06.954Z,13.14
2019-04-25T04:03:15.290Z,13.16
2019-04-25T04:05:23.423Z,13.20
2019-04-25T04:07:33.599Z,13.20
2019-04-25T04:09:41.414Z,13.17
2019-04-25T04:11:49.401Z,13.16
2019-04-25T04:13:57.344Z,13.21
2019-04-25T04:16:06.433Z,13.16
2019-04-25T04:18:17.238Z,13.17
2019-04-25T04:20:38.864Z,13.16
2019-04-25T04:23:03.434Z,13.14
2019-04-25T04:25:13.865Z,13.14
2019-04-25T04:27:23.977Z,13.09
2019-04-25T04:29:33.144Z,13.02
2019-04-25T04:31:41.188Z,13.07
2019-04-25T04:33:48.957Z,13.09
2019-04-25T04:35:56.844Z,13.08
2019-04-25T04:38:04.684Z,13.13
2019-04-25T04:40:14.784Z,13.15
2019-04-25T04:42:23.756Z,13.23
2019-04-25T04:44:31.739Z,13.22
2019-04-25T04:46:39.528Z,13.28
2019-04-25T04:48:47.364Z,13.34
2019-04-25T04:50:55.261Z,13.38
2019-04-25T04:53:03.917Z,13.43
2019-04-25T04:55:15.588Z,13.45
2019-04-25T04:57:32.230Z,13.42
2019-04-25T04:59:33.787Z,13.41
2019-04-25T05:01:55.796Z,13.39
2019-04-25T05:04:09.170Z,13.43
2019-04-25T05:06:19.759Z,13.37
2019-04-25T05:08:29.328Z,13.41
2019-04-25T05:10:37.188Z,13.44
2019-04-25T05:12:45.076Z,13.42
2019-04-25T05:14:53.700Z,13.49
2019-04-25T05:17:01.761Z,13.49
2019-04-25T05:19:09.674Z,13.47
2019-04-25T05:21:18.252Z,13.52
2019-04-25T05:23:26.365Z,13.53
2019-04-25T05:25:34.565Z,13.56
2019-04-25T05:27:57.783Z,13.58
2019-04-25T05:29:52.047Z,13.58
2019-04-25T05:32:00.933Z,13.63
2019-04-25T05:34:08.754Z,13.66
2019-04-25T05:36:17.552Z,13.72
2019-04-25T05:38:26.314Z,13.78
2019-04-25T05:40:36.837Z,13.85
2019-04-25T05:42:47.189Z,13.94
2019-04-25T05:44:56.697Z,14.04
2019-04-25T05:47:04.793Z,14.15
2019-04-25T05:49:13.831Z,14.26
2019-04-25T05:51:23.539Z,14.37
2019-04-25T05:53:33.262Z,14.54
2019-04-25T05:55:41.179Z,14.66
2019-04-25T05:57:50.327Z,14.79
2019-04-25T05:59:58.258Z,14.94
2019-04-25T06:02:06.155Z,15.11
2019-04-25T06:04:15.107Z,15.29
2019-04-25T06:06:24.763Z,15.47
2019-04-25T06:08:34.259Z,15.64
2019-04-25T06:10:45.201Z,15.84
2019-04-25T06:12:53.618Z,16.03
2019-04-25T06:15:02.903Z,16.23
2019-04-25T06:17:15.622Z,16.43
2019-04-25T06:19:43.406Z,16.60
2019-04-25T06:21:51.479Z,16.75
2019-04-25T06:24:06.714Z,16.90
2019-04-25T06:26:24.806Z,17.00
2019-04-25T06:28:28.237Z,17.11
2019-04-25T06:30:36.635Z,17.23
2019-04-25T06:32:44.913Z,17.36
2019-04-25T06:34:54.272Z,17.51
2019-04-25T06:37:04.774Z,17.64
2019-04-25T06:39:14.183Z,17.75
2019-04-25T06:41:22.385Z,17.91
2019-04-25T06:43:30.598Z,18.04
2019-04-25T06:45:44.139Z,18.14
2019-04-25T06:48:01.302Z,18.25
2019-04-25T06:50:09.675Z,18.25
2019-04-25T06:52:17.512Z,18.30
2019-04-25T06:54:26.842Z,18.43
2019-04-25T06:56:35.418Z,18.56
2019-04-25T06:58:43.993Z,18.57
2019-04-25T07:00:58.835Z,18.73
2019-04-25T07:03:01.862Z,18.83
2019-04-25T07:05:25.628Z,18.94
2019-04-25T07:07:24.282Z,18.97
2019-04-25T07:09:34.299Z,19.05
2019-04-25T07:11:41.556Z,19.06
2019-04-25T07:13:49.920Z,19.23
2019-04-25T07:15:57.809Z,19.32
2019-04-25T07:18:05.997Z,19.47
2019-04-25T07:20:14.993Z,19.59
2019-04-25T07:22:23.897Z,19.64
2019-04-25T07:24:35.194Z,19.78
2019-04-25T07:26:44.245Z,19.92
2019-04-25T07:29:11.201Z,20.07
2019-04-25T07:31:33.547Z,20.18
2019-04-25T07:33:53.568Z,20.26
2019-04-25T07:36:04.141Z,20.36
2019-04-25T07:38:14.006Z,20.53
2019-04-25T07:40:23.677Z,20.66
2019-04-25T07:42:34.236Z,20.84
2019-04-25T07:44:50.583Z,20.96
2019-04-25T07:46:54.127Z,20.93
2019-04-25T07:49:03.465Z,20.76
2019-04-25T07:51:16.172Z,20.73
2019-04-25T07:53:24.031Z,20.84
2019-04-25T07:55:33.283Z,20.88
2019-04-25T07:57:44.109Z,21.07
2019-04-25T07:59:53.716Z,21.09
2019-04-25T08:02:03.293Z,21.02
2019-04-25T08:04:11.595Z,20.91
2019-04-25T08:06:22.188Z,21.02
2019-04-25T08:08:29.815Z,21.12
2019-04-25T08:11:00.992Z,20.82
2019-04-25T08:13:08.883Z,21.00
2019-04-25T08:15:28.369Z,21.12
2019-04-25T08:17:46.449Z,20.99
2019-04-25T08:19:54.700Z,20.98
2019-04-25T08:22:03.629Z,20.81
2019-04-25T08:24:13.578Z,21.00
2019-04-25T08:26:23.658Z,21.12
2019-04-25T08:28:33.690Z,21.26
2019-04-25T08:30:41.876Z,21.50
2019-04-25T08:32:51.586Z,21.68
2019-04-25T08:34:59.673Z,21.81
2019-04-25T08:37:17.573Z,21.97
2019-04-25T08:39:17.431Z,22.00
2019-04-25T08:41:25.482Z,22.02
2019-04-25T08:43:34.831Z,22.21
2019-04-25T08:45:44.290Z,22.27
2019-04-25T08:47:53.833Z,22.33
2019-04-25T08:50:06.336Z,22.36
2019-04-25T08:52:14.127Z,22.43
2019-04-25T08:54:35.395Z,22.59
2019-04-25T08:56:43.992Z,22.66
2019-04-25T08:59:03.897Z,22.88
2019-04-25T09:01:09.228Z,23.00
2019-04-25T09:03:18.841Z,23.19
2019-04-25T09:05:36.351Z,23.20
2019-04-25T09:07:45.392Z,23.21
2019-04-25T09:09:54.563Z,23.34
2019-04-25T09:12:04.112Z,23.31
2019-04-25T09:14:13.459Z,23.53
2019-04-25T09:16:21.352Z,23.50
2019-04-25T09:18:29.189Z,23.61
2019-04-25T09:20:39.594Z,23.69
2019-04-25T09:22:46.714Z,23.69
2019-04-25T09:24:54.900Z,23.84
2019-04-25T09:27:03.669Z,23.85
2019-04-25T09:29:18.966Z,23.90
2019-04-25T09:31:23.592Z,23.96
2019-04-25T09:33:31.730Z,24.11
2019-04-25T09:35:39.834Z,24.19
2019-04-25T09:37:48.099Z,23.91
2019-04-25T09:40:06.423Z,24.09
2019-04-25T09:42:14.380Z,24.31
2019-04-25T09:44:26.827Z,24.38
2019-04-25T09:46:37.312Z,24.35
2019-04-25T09:48:58.944Z,24.19
2019-04-25T09:51:13.549Z,24.34
2019-04-25T09:53:25.537Z,24.39
2019-04-25T09:55:44.087Z,24.33
2019-04-25T09:58:00.716Z,24.30
2019-04-25T10:00:26.206Z,24.20
2019-04-25T10:02:34.029Z,24.17
2019-04-25T10:04:41.918Z,24.23
2019-04-25T10:06:50.201Z,24.22
2019-04-25T10:08:59.084Z,24.11
2019-04-25T10:11:07.100Z,24.30
2019-04-25T10:13:14.956Z,24.34
2019-04-25T10:16:01.761Z,24.23
2019-04-25T10:18:09.955Z,24.34
2019-04-25T10:22:26.124Z,24.31
2019-04-25T10:24:34.211Z,24.52
2019-04-25T10:26:41.994Z,24.66
2019-04-25T10:28:49.977Z,24.79
2019-04-25T10:30:57.983Z,24.94
2019-04-25T10:33:06.190Z,24.89
2019-04-25T10:35:15.444Z,24.99
2019-04-25T10:37:23.370Z,25.01
2019-04-25T10:39:31.603Z,24.94
2019-04-25T10:41:40.885Z,24.83
2019-04-25T10:43:50.402Z,24.87
2019-04-25T10:45:58.611Z,24.91
2019-04-25T10:48:06.802Z,24.99
2019-04-25T10:50:15.488Z,25.05
2019-04-25T10:52:23.428Z,25.01
2019-04-25T10:54:31.427Z,25.00
2019-04-25T10:56:40.110Z,25.00
2019-04-25T10:58:48.187Z,24.99
2019-04-25T11:00:56.273Z,24.89
2019-04-25T11:03:22.185Z,24.89
2019-04-25T11:05:30.652Z,24.88
2019-04-25T11:07:38.496Z,24.77
2019-04-25T11:09:48.009Z,24.80
2019-04-25T11:11:56.182Z,24.83
2019-04-25T11:14:07.315Z,24.89
2019-04-25T11:16:16.545Z,24.98
2019-04-25T11:18:24.684Z,25.06
2019-04-25T11:20:33.928Z,25.09
2019-04-25T11:22:42.377Z,25.08
2019-04-25T11:24:52.991Z,25.07
2019-04-25T11:27:01.031Z,25.00
2019-04-25T11:29:09.056Z,24.98
2019-04-25T11:31:18.932Z,25.01
2019-04-25T11:33:26.927Z,25.10
2019-04-25T11:35:35.237Z,25.16
2019-04-25T11:37:45.074Z,25.19
2019-04-25T11:39:56.020Z,25.39
2019-04-25T11:42:05.351Z,25.49
2019-04-25T11:44:13.890Z,25.55
2019-04-25T11:46:22.189Z,25.59
2019-04-25T11:48:30.223Z,25.73
2019-04-25T11:50:39.342Z,25.86
2019-04-25T11:52:47.348Z,25.97
2019-04-25T11:54:55.761Z,26.04
2019-04-25T11:57:03.646Z,26.02
2019-04-25T11:59:13.771Z,25.98
2019-04-25T12:01:24.325Z,25.96
2019-04-25T12:03:33.648Z,25.85
2019-04-25T12:05:42.963Z,25.91
2019-04-25T12:07:51.437Z,25.91
2019-04-25T12:09:59.475Z,25.90
2019-04-25T12:12:07.527Z,25.76
2019-04-25T12:14:16.560Z,25.70
2019-04-25T12:16:25.191Z,25.85
2019-04-25T12:18:33.900Z,25.83
2019-04-25T12:20:45.869Z,25.95
2019-04-25T12:23:04.164Z,26.03
2019-04-25T12:25:04.638Z,26.16
2019-04-25T12:27:12.799Z,26.35
2019-04-25T12:29:20.583Z,26.39
2019-04-25T12:31:28.538Z,26.38
2019-04-25T12:33:36.852Z,26.44
2019-04-25T12:35:44.802Z,26.54
2019-04-25T12:37:54.053Z,26.45
2019-04-25T12:40:04.390Z,26.42
2019-04-25T12:42:14.340Z,26.57
2019-04-25T12:44:29.736Z,26.75
2019-04-25T12:46:43.631Z,26.87
2019-04-25T12:48:51.726Z,26.78
2019-04-25T12:50:59.867Z,26.65
2019-04-25T12:53:07.953Z,26.48
2019-04-25T12:55:16.781Z,26.38
2019-04-25T12:57:25.021Z,26.34
2019-04-25T12:59:32.906Z,26.26
2019-04-25T13:01:40.687Z,26.28
2019-04-25T13:03:48.694Z,26.22
2019-04-25T13:05:58.415Z,26.19
2019-04-25T13:08:06.684Z,26.04
2019-04-25T13:10:15.379Z,26.05
2019-04-25T13:12:24.067Z,26.06
2019-04-25T13:14:31.922Z,26.11
2019-04-25T13:16:40.803Z,26.13
2019-04-25T13:18:51.168Z,26.10
2019-04-25T13:20:59.182Z,26.29
2019-04-25T13:23:08.862Z,26.31
2019-04-25T13:25:18.687Z,26.30
2019-04-25T13:27:34.518Z,26.22
2019-04-25T13:29:46.721Z,26.07
2019-04-25T13:32:07.542Z,25.93
2019-04-25T13:34:35.383Z,25.83
2019-04-25T13:36:32.933Z,25.71
2019-04-25T13:38:43.645Z,25.60
2019-04-25T13:40:52.662Z,25.66
2019-04-25T13:43:00.737Z,25.75
2019-04-25T13:45:09.031Z,25.80
2019-04-25T13:47:17.254Z,25.80
2019-04-25T13:49:25.135Z,25.80
2019-04-25T13:51:33.289Z,25.81
2019-04-25T13:53:41.354Z,25.86
2019-04-25T13:55:49.267Z,25.95
2019-04-25T13:57:58.357Z,26.03
2019-04-25T14:00:10.411Z,26.15
2019-04-25T14:02:20.293Z,26.29
2019-04-25T14:04:29.493Z,26.32
2019-04-25T14:06:37.381Z,26.45
2019-04-25T14:08:45.192Z,26.56
2019-04-25T14:10:54.291Z,26.64
2019-04-25T14:13:03.519Z,26.67
2019-04-25T14:15:13.947Z,26.73
2019-04-25T14:17:40.232Z,26.77
2019-04-25T14:19:54.115Z,26.76
2019-04-25T14:22:04.322Z,26.71
2019-04-25T14:24:20.195Z,26.71
2019-04-25T14:26:22.984Z,26.72
2019-04-25T14:28:31.801Z,26.74
2019-04-25T14:30:40.613Z,26.77
2019-04-25T14:32:48.399Z,26.80
2019-04-25T14:34:56.459Z,26.76
2019-04-25T14:37:05.461Z,26.74
2019-04-25T14:39:14.165Z,26.83
2019-04-25T14:41:22.880Z,26.72
2019-04-25T14:43:32.071Z,26.69
2019-04-25T14:45:44.338Z,26.67
2019-04-25T14:47:49.763Z,26.63
2019-04-25T14:49:57.648Z,26.57
2019-04-25T14:52:05.609Z,26.55
2019-04-25T14:54:19.286Z,26.53
2019-04-25T14:56:44.005Z,26.50
2019-04-25T14:58:52.133Z,26.41
2019-04-25T15:01:00.106Z,26.32
2019-04-25T15:03:08.461Z,26.26
2019-04-25T15:05:16.721Z,26.26
2019-04-25T15:07:24.530Z,26.30
2019-04-25T15:09:32.578Z,26.35
2019-04-25T15:11:41.659Z,26.42
2019-04-25T15:13:50.632Z,26.55
2019-04-25T15:15:58.429Z,26.64
2019-04-25T15:18:06.288Z,26.74
2019-04-25T15:20:14.248Z,26.82
2019-04-25T15:22:22.133Z,26.92
2019-04-25T15:24:30.302Z,26.95
2019-04-25T15:26:40.323Z,27.02
2019-04-25T15:28:48.046Z,27.03
2019-04-25T15:30:55.902Z,27.04
2019-04-25T15:33:07.365Z,27.03
2019-04-25T15:35:17.905Z,27.01
2019-04-25T15:37:33.406Z,27.02
2019-04-25T15:39:48.926Z,26.88
2019-04-25T15:42:08.735Z,26.97
2019-04-25T15:44:33.231Z,26.92
2019-04-25T15:46:43.157Z,26.95
2019-04-25T15:48:51.112Z,26.77
2019-04-25T15:50:59.094Z,26.86
2019-04-25T15:53:08.302Z,26.72
2019-04-25T15:55:16.653Z,26.86
2019-04-25T15:57:24.621Z,26.86
2019-04-25T15:59:33.599Z,26.84
2019-04-25T16:01:42.573Z,26.81
2019-04-25T16:03:52.532Z,26.70
2019-04-25T16:06:01.112Z,26.62
2019-04-25T16:08:09.257Z,26.57
2019-04-25T16:10:19.163Z,26.44
2019-04-25T16:12:31.615Z,26.30
2019-04-25T16:14:40.119Z,26.31
2019-04-25T16:16:49.129Z,26.32
2019-04-25T16:18:57.299Z,26.27
2019-04-25T16:21:05.433Z,26.22
2019-04-25T16:23:13.495Z,26.19
2019-04-25T16:25:21.713Z,26.08
2019-04-25T16:27:30.398Z,25.98
2019-04-25T16:29:38.725Z,26.00
2019-04-25T16:31:46.821Z,25.94
2019-04-25T16:33:54.701Z,25.95
2019-04-25T16:36:02.483Z,25.92
2019-04-25T16:38:12.351Z,25.84
2019-04-25T16:40:20.314Z,25.79
2019-04-25T16:42:28.253Z,25.71
2019-04-25T16:44:36.192Z,25.69
2019-04-25T16:46:44.977Z,25.65
2019-04-25T16:49:00.344Z,25.61
2019-04-25T16:51:08.156Z,25.58
2019-04-25T16:53:18.643Z,25.50
2019-04-25T16:55:26.625Z,25.45
2019-04-25T16:57:34.858Z,25.39
2019-04-25T16:59:44.018Z,25.34
2019-04-25T17:01:51.827Z,25.26
2019-04-25T17:04:03.524Z,25.20
2019-04-25T17:06:11.467Z,25.15
2019-04-25T17:08:19.831Z,25.10
2019-04-25T17:10:29.048Z,25.04
2019-04-25T17:12:37.067Z,24.99
2019-04-25T17:15:02.280Z,24.94
2019-04-25T17:17:23.861Z,24.87
2019-04-25T17:19:37.066Z,24.79
2019-04-25T17:21:45.645Z,24.71
2019-04-25T17:23:54.306Z,24.63
2019-04-25T17:26:02.735Z,24.55
2019-04-25T17:28:16.321Z,24.48
2019-04-25T17:30:24.365Z,24.40
2019-04-25T17:32:48.564Z,24.33
2019-04-25T17:35:02.089Z,24.23
2019-04-25T17:37:14.820Z,24.14
2019-04-25T17:39:29.461Z,24.03
2019-04-25T17:41:38.386Z,23.90
2019-04-25T17:43:46.645Z,23.78
2019-04-25T17:45:54.740Z,23.65
2019-04-25T17:48:02.610Z,23.53
2019-04-25T17:50:11.954Z,23.39
2019-04-25T17:52:20.818Z,23.25
2019-04-25T17:54:29.020Z,23.12
2019-04-25T17:56:37.108Z,22.98
2019-04-25T17:58:44.907Z,22.85
2019-04-25T18:00:54.366Z,22.69
2019-04-25T18:03:02.334Z,22.55
2019-04-25T18:05:12.183Z,22.40
2019-04-25T18:07:20.087Z,22.23
2019-04-25T18:09:28.383Z,22.10
2019-04-25T18:11:36.713Z,21.96
2019-04-25T18:13:47.341Z,21.83
2019-04-25T18:16:12.934Z,21.72
2019-04-25T18:18:22.437Z,21.60
2019-04-25T18:20:31.870Z,21.48
2019-04-25T18:22:47.894Z,21.35
2019-04-25T18:25:13.238Z,21.25
2019-04-25T18:27:22.856Z,21.15
2019-04-25T18:29:30.788Z,21.02
2019-04-25T18:31:39.592Z,20.93
2019-04-25T18:33:49.188Z,20.88
2019-04-25T18:36:03.855Z,20.81
2019-04-25T18:38:13.632Z,20.78
2019-04-25T18:40:27.244Z,20.72
2019-04-25T18:42:46.445Z,20.65
2019-04-25T18:44:55.403Z,20.55
2019-04-25T18:47:03.437Z,20.44
2019-04-25T18:49:12.746Z,20.31
2019-04-25T18:51:20.761Z,20.22
2019-04-25T18:53:31.248Z,20.11
2019-04-25T18:55:57.126Z,19.99
2019-04-25T18:58:10.599Z,19.86
2019-04-25T19:00:22.231Z,19.77
2019-04-25T19:02:46.014Z,19.68
2019-04-25T19:05:14.478Z,19.63
2019-04-25T19:07:23.045Z,19.58
2019-04-25T19:09:31.477Z,19.47
2019-04-25T19:11:40.862Z,19.36
2019-04-25T19:13:49.830Z,19.27
2019-04-25T19:15:57.854Z,19.15
2019-04-25T19:18:06.121Z,19.10
2019-04-25T19:20:14.257Z,19.01
2019-04-25T19:22:22.340Z,18.98
2019-04-25T19:24:30.321Z,18.92
2019-04-25T19:26:40.727Z,18.84
2019-04-25T19:28:47.845Z,18.81
2019-04-25T19:30:55.785Z,18.74
2019-04-25T19:33:07.447Z,18.73
2019-04-25T19:35:14.952Z,18.71
2019-04-25T19:37:22.738Z,18.63
2019-04-25T19:39:32.277Z,18.63
2019-04-25T19:41:42.942Z,18.58
2019-04-25T19:43:58.327Z,18.55
2019-04-25T19:46:06.290Z,18.50
2019-04-25T19:48:14.191Z,18.43
2019-04-25T19:50:22.085Z,18.37
2019-04-25T19:52:29.955Z,18.32
2019-04-25T19:54:38.079Z,18.27
2019-04-25T19:56:45.951Z,18.26
2019-04-25T19:58:53.751Z,18.27
2019-04-25T20:01:01.748Z,18.25
2019-04-25T20:03:17.126Z,18.23
2019-04-25T20:05:29.407Z,18.19
2019-04-25T20:07:43.800Z,18.16
2019-04-25T20:09:55.897Z,18.11
2019-04-25T20:12:03.899Z,18.03
2019-04-25T20:14:12.710Z,17.98
2019-04-25T20:16:20.516Z,17.91
2019-04-25T20:18:28.489Z,17.87
2019-04-25T20:20:36.408Z,17.80
2019-04-25T20:22:44.859Z,17.73
2019-04-25T20:24:53.272Z,17.66
2019-04-25T20:27:01.195Z,17.59
2019-04-25T20:29:10.258Z,17.52
2019-04-25T20:31:18.061Z,17.48
2019-04-25T20:33:26.086Z,17.44
2019-04-25T20:35:34.256Z,17.39
2019-04-25T20:37:42.351Z,17.36
2019-04-25T20:39:51.518Z,17.29
2019-04-25T20:41:59.438Z,17.26
2019-04-25T20:44:07.234Z,17.20
2019-04-25T20:46:15.348Z,17.17
2019-04-25T20:48:23.546Z,17.17
2019-04-25T20:50:31.546Z,17.14
2019-04-25T20:52:39.909Z,17.12
2019-04-25T20:54:48.844Z,17.07
2019-04-25T20:56:57.257Z,17.04
2019-04-25T20:59:05.351Z,17.01
2019-04-25T21:01:13.150Z,16.98
2019-04-25T21:03:21.012Z,16.93
2019-04-25T21:05:28.977Z,16.89
2019-04-25T21:07:36.871Z,16.87
2019-04-25T21:09:44.765Z,16.84
2019-04-25T21:11:53.360Z,16.79
2019-04-25T21:14:01.377Z,16.80
2019-04-25T21:16:28.626Z,16.78
2019-04-25T21:18:38.236Z,16.75
2019-04-25T21:20:46.017Z,16.68
2019-04-25T21:22:55.834Z,16.70
2019-04-25T21:25:05.644Z,16.70
2019-04-25T21:27:14.048Z,16.67
2019-04-25T21:29:21.916Z,16.68
2019-04-25T21:31:29.944Z,16.70
2019-04-25T21:33:37.732Z,16.69
2019-04-25T21:35:46.278Z,16.65
2019-04-25T21:37:55.414Z,16.61
2019-04-25T21:40:15.003Z,16.51
2019-04-25T21:42:40.167Z,16.45
2019-04-25T21:44:48.268Z,16.35
2019-04-25T21:46:56.335Z,16.27
2019-04-25T21:49:05.208Z,16.20
2019-04-25T21:51:31.892Z,16.16
2019-04-25T21:53:40.366Z,16.14
2019-04-25T21:55:48.801Z,16.10
2019-04-25T21:57:58.055Z,16.04
2019-04-25T22:00:15.671Z,16.00
2019-04-25T22:02:26.170Z,15.95
2019-04-25T22:04:38.964Z,15.91
2019-04-25T22:06:44.468Z,15.87
2019-04-25T22:08:52.420Z,15.86
2019-04-25T22:11:01.680Z,15.86
2019-04-25T22:13:16.191Z,15.87
2019-04-25T22:15:20.063Z,15.87
2019-04-25T22:17:29.949Z,15.87
2019-04-25T22:19:38.176Z,15.90
2019-04-25T22:21:46.754Z,15.86
2019-04-25T22:24:06.219Z,15.90
2019-04-25T22:26:06.182Z,15.89
2019-04-25T22:28:17.938Z,15.94
2019-04-25T22:30:26.408Z,15.97
2019-04-25T22:32:36.523Z,16.00
2019-04-25T22:34:52.374Z,16.02
2019-04-25T22:37:00.038Z,16.01
2019-04-25T22:39:13.837Z,16.00
2019-04-25T22:41:22.113Z,15.97
2019-04-25T22:43:32.245Z,15.97
2019-04-25T22:45:40.815Z,15.97
2019-04-25T22:47:49.012Z,15.90
2019-04-25T22:49:56.829Z,15.89
2019-04-25T22:52:05.334Z,15.88
2019-04-25T22:54:13.133Z,15.83
2019-04-25T22:56:21.153Z,15.79
2019-04-25T22:58:28.972Z,15.75
2019-04-25T23:00:38.136Z,15.69
2019-04-25T23:02:48.389Z,15.64
2019-04-25T23:05:12.926Z,15.58
2019-04-25T23:07:17.367Z,15.49
2019-04-25T23:09:25.774Z,15.40
2019-04-25T23:11:34.118Z,15.26
2019-04-25T23:13:42.584Z,15.23
2019-04-25T23:15:50.976Z,15.18
2019-04-25T23:17:59.746Z,15.15
2019-04-25T23:20:07.785Z,15.12
2019-04-25T23:22:15.875Z,15.10
2019-04-25T23:24:26.544Z,15.07
2019-04-25T23:26:37.422Z,15.06
2019-04-25T23:28:47.027Z,15.03
2019-04-25T23:30:59.684Z,14.96
2019-04-25T23:33:08.484Z,14.91
2019-04-25T23:35:27.534Z,14.85
2019-04-25T23:37:26.560Z,14.78
2019-04-25T23:39:34.358Z,14.71
2019-04-25T23:41:42.645Z,14.69
2019-04-25T23:43:51.868Z,14.66
2019-04-25T23:46:00.339Z,14.65
2019-04-25T23:48:08.836Z,14.62
2019-04-25T23:50:17.793Z,14.58
2019-04-25T23:52:25.796Z,14.54
2019-04-25T23:54:33.787Z,14.51
2019-04-25T23:56:42.231Z,14.48
2019-04-25T23:58:50.436Z,14.45
